Rochester, IL (62563)

8:53 PM CST on February 25, 2017 (GMT -0600)
Sattley St. | | Change Station

Elev 577 ft 39.75 °N, 89.53 °W | Updated 30 seconds ago

Clear
Clear
27.0 °F
Feels Like 27 °F
N
0.0
Wind Variable Wind from West

Today
High -- | Low -- °F
--% Chance of Precip.
Yesterday
High -- | Low -- °F
Precip. -- in
Pressure 30.12 in
Visibility 10.0 miles
Clouds Clear
Windchill 27 °F
Dew Point 14 °F
Humidity 58%
Rainfall 0.00 in
Snow Depth Not available.
6:36 AM 5:46 PM
Waning Crescent, 0% visible
METAR KSPI 260152Z 28006KT 10SM CLR M03/M11 A3010 RMK AO2 SLP199 T10281111 $
Pressure 30.12 in
Visibility 10.0 miles
Clouds Clear
Windchill 27 °F
Dew Point 14 °F
Humidity 58%
Rainfall 0.00 in
Snow Depth Not available.
6:36 AM 5:46 PM
Waning Crescent, 0% visible
METAR KSPI 260152Z 28006KT 10SM CLR M03/M11 A3010 RMK AO2 SLP199 T10281111 $

Get Your Daily Forecast Email!

Thanks for signing up!

Be on the lookout for a verification email in your inbox.

You'll start receiving the daily forecast at 8 AM.

×

10-Day Weather Forecast

Almanac

Astronomy

Feb. 25, 2017 Rise Set
Actual Time
Civil Twilight
Nautical Twilight
Astronomical Twilight
Moon
Length of Visible Light
Length of Day
Tomorrow will be .
, % of the Moon is Illuminated

Today's Extremes

State Highs State Lows

Community

WunderPhotos

Upload Photos

1,962,540 photos uploaded!

WunderBlog® & News

Nearby

Air Quality

  Air Quality AQ Index Pollutant
Not available.

Snow Depth

Station Depth Elevation

Earthquake Activity

City Distance Mag. Time & Date
Minimum magnitude displayed is 2.5.

Coastal Water Temperatures

Place Temperature

Stations

Nearby Weather Stations

Station Location Temp. Windchill Dew Point Humidity Wind Precip. Elev Updated Type
                   

Watches & Warnings

There are currently no watches in effect.